Cucumber, West Virginia
Current Conditions -  °F | °C
As of 11:15 AM on Tuesday 21 Oct 2014 (Local Time) from KJFZ Reporting Station
Overcast Overcast  
Wind Chill: 56°   Ceiling: 1700
Heat Index: 56°   Visibility: 10mi
Dew Point: 49°   Wind: 8mph
Humidity: 79%   Direction: 270°W
Pressure: 29.97"   Gusts: NA
Location:  37.28°N, 81.63°W
Report Text: KJFZ 211515Z AUTO 27007KT 10SM SCT007 BKN017 OVC026 13/10 A2997 RMK AO2 T01310095
Loading
Personal Weather Stations






























Interactive Weather Map
Tropical Storm Tracking
New forecast layout! Learn more

10-Day Weather Forecast

Advertisements
Track Severe Weather on mobile